sensor_id;sensor_type;location;lat;lon;timestamp;temperature;humidity
13186;DHT22;6658;53.080;7.428;2022-12-07T00:01:06;4.00;99.90
13186;DHT22;6658;53.080;7.428;2022-12-07T00:03:33;4.00;99.90
13186;DHT22;6658;53.080;7.428;2022-12-07T00:06:00;3.90;99.90
13186;DHT22;6658;53.080;7.428;2022-12-07T00:08:26;3.90;99.90
13186;DHT22;6658;53.080;7.428;2022-12-07T00:10:52;3.80;99.90
13186;DHT22;6658;53.080;7.428;2022-12-07T00:13:18;3.80;99.90
13186;DHT22;6658;53.080;7.428;2022-12-07T00:15:44;3.70;99.90
13186;DHT22;6658;53.080;7.428;2022-12-07T00:18:09;3.70;99.90
13186;DHT22;6658;53.080;7.428;2022-12-07T00:20:35;3.60;99.90
13186;DHT22;6658;53.080;7.428;2022-12-07T00:23:01;3.60;99.90
13186;DHT22;6658;53.080;7.428;2022-12-07T00:25:26;3.50;99.90
13186;DHT22;6658;53.080;7.428;2022-12-07T00:27:53;3.50;99.90
13186;DHT22;6658;53.080;7.428;2022-12-07T00:30:22;3.40;99.90
13186;DHT22;6658;53.080;7.428;2022-12-07T00:32:47;3.30;99.90
13186;DHT22;6658;53.080;7.428;2022-12-07T00:35:13;3.30;99.90
13186;DHT22;6658;53.080;7.428;2022-12-07T00:37:39;3.30;99.90
13186;DHT22;6658;53.080;7.428;2022-12-07T00:40:06;3.20;99.90
13186;DHT22;6658;53.080;7.428;2022-12-07T00:42:31;3.20;99.90
13186;DHT22;6658;53.080;7.428;2022-12-07T00:44:57;3.20;99.90
13186;DHT22;6658;53.080;7.428;2022-12-07T00:47:23;3.20;99.90
13186;DHT22;6658;53.080;7.428;2022-12-07T00:49:48;3.20;99.90
13186;DHT22;6658;53.080;7.428;2022-12-07T00:52:14;3.20;99.90
13186;DHT22;6658;53.080;7.428;2022-12-07T00:54:40;3.20;99.90
13186;DHT22;6658;53.080;7.428;2022-12-07T00:57:06;3.20;99.90
13186;DHT22;6658;53.080;7.428;2022-12-07T00:59:32;3.30;99.90
13186;DHT22;6658;53.080;7.428;2022-12-07T01:01:57;3.30;99.90
13186;DHT22;6658;53.080;7.428;2022-12-07T01:04:23;3.40;99.90
13186;DHT22;6658;53.080;7.428;2022-12-07T01:06:49;3.50;99.90
13186;DHT22;6658;53.080;7.428;2022-12-07T01:09:14;3.60;99.90
13186;DHT22;6658;53.080;7.428;2022-12-07T01:11:40;3.60;99.90
13186;DHT22;6658;53.080;7.428;2022-12-07T01:14:06;3.60;99.90
13186;DHT22;6658;53.080;7.428;2022-12-07T01:16:32;3.70;99.90
13186;DHT22;6658;53.080;7.428;2022-12-07T01:18:59;3.60;99.90
13186;DHT22;6658;53.080;7.428;2022-12-07T01:21:30;3.60;99.90
13186;DHT22;6658;53.080;7.428;2022-12-07T01:24:00;3.60;99.90
13186;DHT22;6658;53.080;7.428;2022-12-07T01:26:26;3.60;99.90
13186;DHT22;6658;53.080;7.428;2022-12-07T01:28:53;3.60;99.90
13186;DHT22;6658;53.080;7.428;2022-12-07T01:31:22;3.60;99.90
13186;DHT22;6658;53.080;7.428;2022-12-07T01:33:52;3.60;99.90
13186;DHT22;6658;53.080;7.428;2022-12-07T01:36:20;3.70;99.90
13186;DHT22;6658;53.080;7.428;2022-12-07T01:38:48;3.80;99.90
13186;DHT22;6658;53.080;7.428;2022-12-07T01:41:14;3.80;99.90
13186;DHT22;6658;53.080;7.428;2022-12-07T01:46:33;3.90;99.90
13186;DHT22;6658;53.080;7.428;2022-12-07T01:48:59;3.90;99.90
13186;DHT22;6658;53.080;7.428;2022-12-07T01:51:26;4.10;99.90
13186;DHT22;6658;53.080;7.428;2022-12-07T01:53:53;4.10;99.90
13186;DHT22;6658;53.080;7.428;2022-12-07T01:56:21;4.20;99.90
13186;DHT22;6658;53.080;7.428;2022-12-07T01:58:51;4.20;99.90
13186;DHT22;6658;53.080;7.428;2022-12-07T02:01:18;4.20;99.90
13186;DHT22;6658;53.080;7.428;2022-12-07T02:03:44;4.20;99.90
13186;DHT22;6658;53.080;7.428;2022-12-07T02:06:13;4.20;99.90
13186;DHT22;6658;53.080;7.428;2022-12-07T02:08:42;4.20;99.90
13186;DHT22;6658;53.080;7.428;2022-12-07T02:11:08;4.30;99.90
13186;DHT22;6658;53.080;7.428;2022-12-07T02:13:36;4.30;99.90
13186;DHT22;6658;53.080;7.428;2022-12-07T02:21:52;4.40;99.90
13186;DHT22;6658;53.080;7.428;2022-12-07T02:30:08;4.40;99.90
13186;DHT22;6658;53.080;7.428;2022-12-07T02:38:14;4.50;99.90
13186;DHT22;6658;53.080;7.428;2022-12-07T02:41:09;4.40;99.90
13186;DHT22;6658;53.080;7.428;2022-12-07T02:43:39;4.40;99.90
13186;DHT22;6658;53.080;7.428;2022-12-07T02:46:11;4.50;99.90
13186;DHT22;6658;53.080;7.428;2022-12-07T02:48:39;4.50;99.90
13186;DHT22;6658;53.080;7.428;2022-12-07T02:51:05;4.70;99.90
13186;DHT22;6658;53.080;7.428;2022-12-07T02:53:40;4.80;99.90
13186;DHT22;6658;53.080;7.428;2022-12-07T03:02:47;5.00;99.90
13186;DHT22;6658;53.080;7.428;2022-12-07T03:11:06;4.90;99.90
13186;DHT22;6658;53.080;7.428;2022-12-07T03:13:55;4.90;99.90
13186;DHT22;6658;53.080;7.428;2022-12-07T03:16:33;4.80;99.90
13186;DHT22;6658;53.080;7.428;2022-12-07T03:19:05;4.80;99.90
13186;DHT22;6658;53.080;7.428;2022-12-07T03:21:42;4.80;99.90
13186;DHT22;6658;53.080;7.428;2022-12-07T03:24:17;4.80;99.90
13186;DHT22;6658;53.080;7.428;2022-12-07T03:26:50;4.80;99.90
13186;DHT22;6658;53.080;7.428;2022-12-07T03:29:25;4.80;99.90
13186;DHT22;6658;53.080;7.428;2022-12-07T03:32:04;4.80;99.90
13186;DHT22;6658;53.080;7.428;2022-12-07T03:35:01;4.80;99.90
13186;DHT22;6658;53.080;7.428;2022-12-07T03:37:32;4.80;99.90
13186;DHT22;6658;53.080;7.428;2022-12-07T03:42:38;4.60;99.90
13186;DHT22;6658;53.080;7.428;2022-12-07T03:45:04;4.50;99.90
13186;DHT22;6658;53.080;7.428;2022-12-07T03:47:37;4.40;99.90
13186;DHT22;6658;53.080;7.428;2022-12-07T03:50:29;4.40;99.90
13186;DHT22;6658;53.080;7.428;2022-12-07T03:53:02;4.40;99.90
13186;DHT22;6658;53.080;7.428;2022-12-07T03:55:32;4.40;99.90
13186;DHT22;6658;53.080;7.428;2022-12-07T03:58:03;4.30;99.90
13186;DHT22;6658;53.080;7.428;2022-12-07T04:00:29;4.30;99.90
13186;DHT22;6658;53.080;7.428;2022-12-07T04:02:55;4.30;99.90
13186;DHT22;6658;53.080;7.428;2022-12-07T04:05:21;4.10;99.90
13186;DHT22;6658;53.080;7.428;2022-12-07T04:07:47;4.00;99.90
13186;DHT22;6658;53.080;7.428;2022-12-07T04:10:13;3.90;99.90
13186;DHT22;6658;53.080;7.428;2022-12-07T04:12:39;3.80;99.90
13186;DHT22;6658;53.080;7.428;2022-12-07T04:15:05;3.70;99.90
13186;DHT22;6658;53.080;7.428;2022-12-07T04:17:31;3.70;99.90
13186;DHT22;6658;53.080;7.428;2022-12-07T04:19:57;3.60;99.90
13186;DHT22;6658;53.080;7.428;2022-12-07T04:22:23;3.60;99.90
13186;DHT22;6658;53.080;7.428;2022-12-07T04:24:48;3.50;99.90
13186;DHT22;6658;53.080;7.428;2022-12-07T04:27:14;3.60;99.90
13186;DHT22;6658;53.080;7.428;2022-12-07T04:29:40;3.70;99.90
13186;DHT22;6658;53.080;7.428;2022-12-07T04:32:05;3.80;99.90
13186;DHT22;6658;53.080;7.428;2022-12-07T04:34:31;3.70;99.90
13186;DHT22;6658;53.080;7.428;2022-12-07T04:36:57;3.80;99.90
13186;DHT22;6658;53.080;7.428;2022-12-07T04:39:25;3.80;99.90
13186;DHT22;6658;53.080;7.428;2022-12-07T04:41:51;3.80;99.90
13186;DHT22;6658;53.080;7.428;2022-12-07T04:44:18;3.80;99.90
13186;DHT22;6658;53.080;7.428;2022-12-07T04:46:45;3.80;99.90
13186;DHT22;6658;53.080;7.428;2022-12-07T04:49:12;3.80;99.90
13186;DHT22;6658;53.080;7.428;2022-12-07T04:51:38;3.70;99.90
13186;DHT22;6658;53.080;7.428;2022-12-07T04:54:04;3.80;99.90
13186;DHT22;6658;53.080;7.428;2022-12-07T04:56:30;3.80;99.90
13186;DHT22;6658;53.080;7.428;2022-12-07T04:58:56;3.90;99.90
13186;DHT22;6658;53.080;7.428;2022-12-07T05:01:22;3.90;99.90
13186;DHT22;6658;53.080;7.428;2022-12-07T05:03:48;4.00;99.90
13186;DHT22;6658;53.080;7.428;2022-12-07T05:06:15;4.10;99.90
13186;DHT22;6658;53.080;7.428;2022-12-07T05:08:41;4.20;99.90
13186;DHT22;6658;53.080;7.428;2022-12-07T05:11:08;4.20;99.90
13186;DHT22;6658;53.080;7.428;2022-12-07T05:13:34;4.20;99.90
13186;DHT22;6658;53.080;7.428;2022-12-07T05:16:00;4.30;99.90
13186;DHT22;6658;53.080;7.428;2022-12-07T05:18:26;4.30;99.90
13186;DHT22;6658;53.080;7.428;2022-12-07T05:20:52;4.30;99.90
13186;DHT22;6658;53.080;7.428;2022-12-07T05:23:18;4.30;99.90
13186;DHT22;6658;53.080;7.428;2022-12-07T05:25:44;4.30;99.90
13186;DHT22;6658;53.080;7.428;2022-12-07T05:28:10;4.30;99.90
13186;DHT22;6658;53.080;7.428;2022-12-07T05:30:36;4.20;99.90
13186;DHT22;6658;53.080;7.428;2022-12-07T05:33:02;4.20;99.90
13186;DHT22;6658;53.080;7.428;2022-12-07T05:35:29;4.20;99.90
13186;DHT22;6658;53.080;7.428;2022-12-07T05:37:55;4.20;99.90
13186;DHT22;6658;53.080;7.428;2022-12-07T05:40:21;4.10;99.90
13186;DHT22;6658;53.080;7.428;2022-12-07T05:42:46;4.00;99.90
13186;DHT22;6658;53.080;7.428;2022-12-07T05:45:12;4.00;99.90
13186;DHT22;6658;53.080;7.428;2022-12-07T05:47:38;3.80;99.90
13186;DHT22;6658;53.080;7.428;2022-12-07T05:50:04;3.80;99.90
13186;DHT22;6658;53.080;7.428;2022-12-07T05:52:30;3.70;99.90
13186;DHT22;6658;53.080;7.428;2022-12-07T05:54:56;3.80;99.90
13186;DHT22;6658;53.080;7.428;2022-12-07T05:57:22;3.80;99.90
13186;DHT22;6658;53.080;7.428;2022-12-07T05:59:47;3.90;99.90
13186;DHT22;6658;53.080;7.428;2022-12-07T06:02:15;3.90;99.90
13186;DHT22;6658;53.080;7.428;2022-12-07T06:04:43;3.90;99.90
13186;DHT22;6658;53.080;7.428;2022-12-07T06:07:11;4.00;99.90
13186;DHT22;6658;53.080;7.428;2022-12-07T06:09:37;4.00;99.90
13186;DHT22;6658;53.080;7.428;2022-12-07T06:12:04;4.00;99.90
13186;DHT22;6658;53.080;7.428;2022-12-07T06:14:48;4.00;99.90
13186;DHT22;6658;53.080;7.428;2022-12-07T06:17:14;4.10;99.90
13186;DHT22;6658;53.080;7.428;2022-12-07T06:19:41;4.00;99.90
13186;DHT22;6658;53.080;7.428;2022-12-07T06:22:06;4.00;99.90
13186;DHT22;6658;53.080;7.428;2022-12-07T06:24:33;4.00;99.90
13186;DHT22;6658;53.080;7.428;2022-12-07T06:26:59;4.00;99.90
13186;DHT22;6658;53.080;7.428;2022-12-07T06:29:24;3.90;99.90
13186;DHT22;6658;53.080;7.428;2022-12-07T06:31:50;3.80;99.90
13186;DHT22;6658;53.080;7.428;2022-12-07T06:34:18;3.80;99.90
13186;DHT22;6658;53.080;7.428;2022-12-07T06:36:44;3.80;99.90
13186;DHT22;6658;53.080;7.428;2022-12-07T06:39:11;3.80;99.90
13186;DHT22;6658;53.080;7.428;2022-12-07T06:41:37;3.70;99.90
13186;DHT22;6658;53.080;7.428;2022-12-07T06:44:06;3.60;99.90
13186;DHT22;6658;53.080;7.428;2022-12-07T06:46:32;3.60;99.90
13186;DHT22;6658;53.080;7.428;2022-12-07T06:48:58;3.50;99.90
13186;DHT22;6658;53.080;7.428;2022-12-07T06:51:24;3.50;99.90
13186;DHT22;6658;53.080;7.428;2022-12-07T06:53:49;3.40;99.90
13186;DHT22;6658;53.080;7.428;2022-12-07T06:56:15;3.40;99.90
13186;DHT22;6658;53.080;7.428;2022-12-07T06:58:41;3.30;99.90
13186;DHT22;6658;53.080;7.428;2022-12-07T07:01:14;3.30;99.90
13186;DHT22;6658;53.080;7.428;2022-12-07T07:03:41;3.30;99.90
13186;DHT22;6658;53.080;7.428;2022-12-07T07:06:07;3.40;99.90
13186;DHT22;6658;53.080;7.428;2022-12-07T07:08:34;3.50;99.90
13186;DHT22;6658;53.080;7.428;2022-12-07T07:11:00;3.60;99.90
13186;DHT22;6658;53.080;7.428;2022-12-07T07:13:26;3.70;99.90
13186;DHT22;6658;53.080;7.428;2022-12-07T07:15:52;3.80;99.90
13186;DHT22;6658;53.080;7.428;2022-12-07T07:18:18;3.90;99.90
13186;DHT22;6658;53.080;7.428;2022-12-07T07:20:43;3.90;99.90
13186;DHT22;6658;53.080;7.428;2022-12-07T07:23:09;3.90;99.90
13186;DHT22;6658;53.080;7.428;2022-12-07T07:25:35;3.90;99.90
13186;DHT22;6658;53.080;7.428;2022-12-07T07:28:01;3.80;99.90
13186;DHT22;6658;53.080;7.428;2022-12-07T07:30:26;3.80;99.90
13186;DHT22;6658;53.080;7.428;2022-12-07T07:33:00;3.70;99.90
13186;DHT22;6658;53.080;7.428;2022-12-07T07:35:27;3.60;99.90
13186;DHT22;6658;53.080;7.428;2022-12-07T07:37:53;3.60;99.90
13186;DHT22;6658;53.080;7.428;2022-12-07T07:40:19;3.50;99.90
13186;DHT22;6658;53.080;7.428;2022-12-07T07:42:47;3.40;99.90
13186;DHT22;6658;53.080;7.428;2022-12-07T07:45:14;3.40;99.90
13186;DHT22;6658;53.080;7.428;2022-12-07T07:47:39;3.30;99.90
13186;DHT22;6658;53.080;7.428;2022-12-07T07:50:06;3.20;99.90
13186;DHT22;6658;53.080;7.428;2022-12-07T07:52:31;3.30;99.90
13186;DHT22;6658;53.080;7.428;2022-12-07T07:54:57;3.20;99.90
13186;DHT22;6658;53.080;7.428;2022-12-07T07:57:23;3.20;99.90
13186;DHT22;6658;53.080;7.428;2022-12-07T07:59:49;3.20;99.90
13186;DHT22;6658;53.080;7.428;2022-12-07T08:02:17;3.20;99.90
13186;DHT22;6658;53.080;7.428;2022-12-07T08:04:43;3.30;99.90
13186;DHT22;6658;53.080;7.428;2022-12-07T08:07:09;3.30;99.90
13186;DHT22;6658;53.080;7.428;2022-12-07T08:09:35;3.40;99.90
13186;DHT22;6658;53.080;7.428;2022-12-07T08:12:01;3.50;99.90
13186;DHT22;6658;53.080;7.428;2022-12-07T08:14:27;3.50;99.90
13186;DHT22;6658;53.080;7.428;2022-12-07T08:16:54;3.50;99.90
13186;DHT22;6658;53.080;7.428;2022-12-07T08:19:20;3.60;99.90
13186;DHT22;6658;53.080;7.428;2022-12-07T08:21:45;3.60;99.90
13186;DHT22;6658;53.080;7.428;2022-12-07T08:24:11;3.60;99.90
13186;DHT22;6658;53.080;7.428;2022-12-07T08:26:37;3.60;99.90
13186;DHT22;6658;53.080;7.428;2022-12-07T08:29:03;3.60;99.90
13186;DHT22;6658;53.080;7.428;2022-12-07T08:31:28;3.60;99.90
13186;DHT22;6658;53.080;7.428;2022-12-07T08:33:55;3.60;99.90
13186;DHT22;6658;53.080;7.428;2022-12-07T08:36:20;3.60;99.90
13186;DHT22;6658;53.080;7.428;2022-12-07T08:38:48;3.60;99.90
13186;DHT22;6658;53.080;7.428;2022-12-07T08:41:14;3.70;99.90
13186;DHT22;6658;53.080;7.428;2022-12-07T08:43:40;3.80;99.90
13186;DHT22;6658;53.080;7.428;2022-12-07T08:48:41;3.90;99.90
13186;DHT22;6658;53.080;7.428;2022-12-07T08:51:08;4.10;99.90
13186;DHT22;6658;53.080;7.428;2022-12-07T08:53:35;4.10;99.90
13186;DHT22;6658;53.080;7.428;2022-12-07T08:56:02;4.20;99.90
13186;DHT22;6658;53.080;7.428;2022-12-07T08:58:28;4.20;99.90
13186;DHT22;6658;53.080;7.428;2022-12-07T09:00:53;4.20;99.90
13186;DHT22;6658;53.080;7.428;2022-12-07T09:03:19;4.20;99.90
13186;DHT22;6658;53.080;7.428;2022-12-07T09:05:45;4.20;99.90
13186;DHT22;6658;53.080;7.428;2022-12-07T09:08:11;4.20;99.90
13186;DHT22;6658;53.080;7.428;2022-12-07T09:10:37;4.20;99.90
13186;DHT22;6658;53.080;7.428;2022-12-07T09:13:02;4.10;99.90
13186;DHT22;6658;53.080;7.428;2022-12-07T09:15:29;4.10;99.90
13186;DHT22;6658;53.080;7.428;2022-12-07T09:17:54;4.20;99.90
13186;DHT22;6658;53.080;7.428;2022-12-07T09:20:20;4.30;99.90
13186;DHT22;6658;53.080;7.428;2022-12-07T09:22:46;4.50;99.90
13186;DHT22;6658;53.080;7.428;2022-12-07T09:25:12;4.70;99.90
13186;DHT22;6658;53.080;7.428;2022-12-07T09:27:37;4.90;99.90
13186;DHT22;6658;53.080;7.428;2022-12-07T09:30:04;5.10;99.90
13186;DHT22;6658;53.080;7.428;2022-12-07T09:32:30;5.20;99.90
13186;DHT22;6658;53.080;7.428;2022-12-07T09:34:56;5.30;99.90
13186;DHT22;6658;53.080;7.428;2022-12-07T09:37:22;5.40;99.90
13186;DHT22;6658;53.080;7.428;2022-12-07T09:39:48;5.40;99.90
13186;DHT22;6658;53.080;7.428;2022-12-07T09:44:56;5.50;99.90
13186;DHT22;6658;53.080;7.428;2022-12-07T09:47:24;5.60;99.90
13186;DHT22;6658;53.080;7.428;2022-12-07T09:49:49;5.50;99.90
13186;DHT22;6658;53.080;7.428;2022-12-07T09:52:27;5.60;99.90
13186;DHT22;6658;53.080;7.428;2022-12-07T09:54:54;5.60;99.90
13186;DHT22;6658;53.080;7.428;2022-12-07T09:57:32;5.60;99.90
13186;DHT22;6658;53.080;7.428;2022-12-07T10:00:03;5.70;99.90
13186;DHT22;6658;53.080;7.428;2022-12-07T10:02:40;5.70;99.90
13186;DHT22;6658;53.080;7.428;2022-12-07T10:05:21;5.70;99.90
13186;DHT22;6658;53.080;7.428;2022-12-07T10:07:48;5.80;99.90
13186;DHT22;6658;53.080;7.428;2022-12-07T10:10:26;5.80;99.90
13186;DHT22;6658;53.080;7.428;2022-12-07T10:13:03;5.90;99.90
13186;DHT22;6658;53.080;7.428;2022-12-07T10:20:48;6.00;99.90
13186;DHT22;6658;53.080;7.428;2022-12-07T10:23:16;5.90;99.90
13186;DHT22;6658;53.080;7.428;2022-12-07T10:25:42;6.00;99.90
13186;DHT22;6658;53.080;7.428;2022-12-07T10:35:54;5.90;99.90
13186;DHT22;6658;53.080;7.428;2022-12-07T10:38:20;5.70;99.90
13186;DHT22;6658;53.080;7.428;2022-12-07T10:40:45;5.70;99.90
13186;DHT22;6658;53.080;7.428;2022-12-07T10:46:40;5.60;99.90
13186;DHT22;6658;53.080;7.428;2022-12-07T10:55:17;5.30;99.90
13186;DHT22;6658;53.080;7.428;2022-12-07T10:58:24;5.20;99.90
13186;DHT22;6658;53.080;7.428;2022-12-07T11:03:46;5.10;99.90
13186;DHT22;6658;53.080;7.428;2022-12-07T11:06:34;5.10;99.90
13186;DHT22;6658;53.080;7.428;2022-12-07T11:12:03;5.10;99.90
13186;DHT22;6658;53.080;7.428;2022-12-07T11:14:58;5.20;99.90
13186;DHT22;6658;53.080;7.428;2022-12-07T11:25:59;5.60;99.90
13186;DHT22;6658;53.080;7.428;2022-12-07T11:31:24;5.60;99.90
13186;DHT22;6658;53.080;7.428;2022-12-07T11:34:06;5.70;99.90
13186;DHT22;6658;53.080;7.428;2022-12-07T11:36:52;5.80;99.90
13186;DHT22;6658;53.080;7.428;2022-12-07T11:41:50;6.00;99.90
13186;DHT22;6658;53.080;7.428;2022-12-07T11:44:31;6.00;99.90
13186;DHT22;6658;53.080;7.428;2022-12-07T11:47:16;5.90;99.90
13186;DHT22;6658;53.080;7.428;2022-12-07T11:56:14;5.80;99.90
13186;DHT22;6658;53.080;7.428;2022-12-07T11:58:59;5.80;99.90
13186;DHT22;6658;53.080;7.428;2022-12-07T12:06:36;6.00;99.90
13186;DHT22;6658;53.080;7.428;2022-12-07T12:14:46;6.40;99.90
13186;DHT22;6658;53.080;7.428;2022-12-07T12:22:44;6.60;99.90
13186;DHT22;6658;53.080;7.428;2022-12-07T12:25:23;6.60;99.90
13186;DHT22;6658;53.080;7.428;2022-12-07T12:27:52;6.60;99.90
13186;DHT22;6658;53.080;7.428;2022-12-07T12:30:35;6.50;99.90
13186;DHT22;6658;53.080;7.428;2022-12-07T12:35:37;6.50;99.90
13186;DHT22;6658;53.080;7.428;2022-12-07T12:38:32;6.40;99.90
13186;DHT22;6658;53.080;7.428;2022-12-07T12:41:01;6.40;99.90
13186;DHT22;6658;53.080;7.428;2022-12-07T12:43:46;6.30;99.90
13186;DHT22;6658;53.080;7.428;2022-12-07T12:46:50;6.20;99.90
13186;DHT22;6658;53.080;7.428;2022-12-07T12:51:56;6.10;99.90
13186;DHT22;6658;53.080;7.428;2022-12-07T12:57:27;6.10;99.90
13186;DHT22;6658;53.080;7.428;2022-12-07T13:10:32;6.10;99.90
13186;DHT22;6658;53.080;7.428;2022-12-07T13:15:43;6.10;99.90
13186;DHT22;6658;53.080;7.428;2022-12-07T13:23:54;6.10;99.90
13186;DHT22;6658;53.080;7.428;2022-12-07T13:29:12;6.10;99.90
13186;DHT22;6658;53.080;7.428;2022-12-07T13:34:31;6.00;99.90
13186;DHT22;6658;53.080;7.428;2022-12-07T13:37:02;5.90;99.90
13186;DHT22;6658;53.080;7.428;2022-12-07T13:39:32;5.80;99.90
13186;DHT22;6658;53.080;7.428;2022-12-07T13:41:59;5.80;99.90
13186;DHT22;6658;53.080;7.428;2022-12-07T13:44:38;5.70;99.90
13186;DHT22;6658;53.080;7.428;2022-12-07T13:47:41;5.60;99.90
13186;DHT22;6658;53.080;7.428;2022-12-07T13:50:41;5.60;99.90
13186;DHT22;6658;53.080;7.428;2022-12-07T13:53:12;5.40;99.90
13186;DHT22;6658;53.080;7.428;2022-12-07T13:55:44;5.40;99.90
13186;DHT22;6658;53.080;7.428;2022-12-07T13:58:10;5.30;99.90
13186;DHT22;6658;53.080;7.428;2022-12-07T14:00:36;5.30;99.90
13186;DHT22;6658;53.080;7.428;2022-12-07T14:03:25;5.30;99.90
13186;DHT22;6658;53.080;7.428;2022-12-07T14:08:38;5.30;99.90
13186;DHT22;6658;53.080;7.428;2022-12-07T14:11:04;5.40;99.90
13186;DHT22;6658;53.080;7.428;2022-12-07T14:13:34;5.40;99.90
13186;DHT22;6658;53.080;7.428;2022-12-07T14:16:04;5.40;99.90
13186;DHT22;6658;53.080;7.428;2022-12-07T14:18:40;5.40;99.90
13186;DHT22;6658;53.080;7.428;2022-12-07T14:21:15;5.50;99.90
13186;DHT22;6658;53.080;7.428;2022-12-07T14:23:41;5.50;99.90
13186;DHT22;6658;53.080;7.428;2022-12-07T14:26:12;5.50;99.90
13186;DHT22;6658;53.080;7.428;2022-12-07T14:28:39;5.50;99.90
13186;DHT22;6658;53.080;7.428;2022-12-07T14:31:24;5.50;99.90
13186;DHT22;6658;53.080;7.428;2022-12-07T14:33:50;5.50;99.90
13186;DHT22;6658;53.080;7.428;2022-12-07T14:36:16;5.40;99.90
13186;DHT22;6658;53.080;7.428;2022-12-07T14:38:41;5.40;99.90
13186;DHT22;6658;53.080;7.428;2022-12-07T14:41:14;5.30;99.90
13186;DHT22;6658;53.080;7.428;2022-12-07T14:43:59;5.20;99.90
13186;DHT22;6658;53.080;7.428;2022-12-07T14:46:25;5.00;99.90
13186;DHT22;6658;53.080;7.428;2022-12-07T14:48:50;4.90;99.90
13186;DHT22;6658;53.080;7.428;2022-12-07T14:51:16;4.80;99.90
13186;DHT22;6658;53.080;7.428;2022-12-07T14:53:50;4.70;99.90
13186;DHT22;6658;53.080;7.428;2022-12-07T14:56:16;4.60;99.90
13186;DHT22;6658;53.080;7.428;2022-12-07T14:58:41;4.60;99.90
13186;DHT22;6658;53.080;7.428;2022-12-07T15:01:07;4.50;99.90
13186;DHT22;6658;53.080;7.428;2022-12-07T15:03:33;4.40;99.90
13186;DHT22;6658;53.080;7.428;2022-12-07T15:06:01;4.30;99.90
13186;DHT22;6658;53.080;7.428;2022-12-07T15:08:28;4.30;99.90
13186;DHT22;6658;53.080;7.428;2022-12-07T15:10:54;4.20;99.90
13186;DHT22;6658;53.080;7.428;2022-12-07T15:13:19;4.10;99.90
13186;DHT22;6658;53.080;7.428;2022-12-07T15:16:23;4.00;99.90
13186;DHT22;6658;53.080;7.428;2022-12-07T15:18:49;3.90;99.90
13186;DHT22;6658;53.080;7.428;2022-12-07T15:21:15;3.80;99.90
13186;DHT22;6658;53.080;7.428;2022-12-07T15:23:42;3.80;99.90
13186;DHT22;6658;53.080;7.428;2022-12-07T15:26:07;3.80;99.90
13186;DHT22;6658;53.080;7.428;2022-12-07T15:28:34;3.70;99.90
13186;DHT22;6658;53.080;7.428;2022-12-07T15:30:59;3.80;99.90
13186;DHT22;6658;53.080;7.428;2022-12-07T15:33:25;3.80;99.90
13186;DHT22;6658;53.080;7.428;2022-12-07T15:35:51;3.80;99.90
13186;DHT22;6658;53.080;7.428;2022-12-07T15:38:16;3.80;99.90
13186;DHT22;6658;53.080;7.428;2022-12-07T15:40:42;3.90;99.90
13186;DHT22;6658;53.080;7.428;2022-12-07T15:43:11;3.80;99.90
13186;DHT22;6658;53.080;7.428;2022-12-07T15:45:55;3.90;99.90
13186;DHT22;6658;53.080;7.428;2022-12-07T15:48:21;3.90;99.90
13186;DHT22;6658;53.080;7.428;2022-12-07T15:50:47;3.90;99.90
13186;DHT22;6658;53.080;7.428;2022-12-07T15:53:12;3.90;99.90
13186;DHT22;6658;53.080;7.428;2022-12-07T15:55:39;3.90;99.90
13186;DHT22;6658;53.080;7.428;2022-12-07T15:58:05;3.90;99.90
13186;DHT22;6658;53.080;7.428;2022-12-07T16:00:31;3.90;99.90
13186;DHT22;6658;53.080;7.428;2022-12-07T16:02:57;3.90;99.90
13186;DHT22;6658;53.080;7.428;2022-12-07T16:05:23;3.90;99.90
13186;DHT22;6658;53.080;7.428;2022-12-07T16:07:48;3.80;99.90
13186;DHT22;6658;53.080;7.428;2022-12-07T16:10:14;3.90;99.90
13186;DHT22;6658;53.080;7.428;2022-12-07T16:12:40;3.90;99.90
13186;DHT22;6658;53.080;7.428;2022-12-07T16:15:06;3.90;99.90
13186;DHT22;6658;53.080;7.428;2022-12-07T16:17:32;3.90;99.90
13186;DHT22;6658;53.080;7.428;2022-12-07T16:19:58;4.00;99.90
13186;DHT22;6658;53.080;7.428;2022-12-07T16:22:24;4.00;99.90
13186;DHT22;6658;53.080;7.428;2022-12-07T16:24:49;4.00;99.90
13186;DHT22;6658;53.080;7.428;2022-12-07T16:27:15;4.10;99.90
13186;DHT22;6658;53.080;7.428;2022-12-07T16:29:41;4.10;99.90
13186;DHT22;6658;53.080;7.428;2022-12-07T16:32:07;4.20;99.90
13186;DHT22;6658;53.080;7.428;2022-12-07T16:34:33;4.20;99.90
13186;DHT22;6658;53.080;7.428;2022-12-07T16:36:58;4.30;99.90
13186;DHT22;6658;53.080;7.428;2022-12-07T16:39:24;4.20;99.90
13186;DHT22;6658;53.080;7.428;2022-12-07T16:41:50;4.20;99.90
13186;DHT22;6658;53.080;7.428;2022-12-07T16:44:16;4.20;99.90
13186;DHT22;6658;53.080;7.428;2022-12-07T16:46:42;4.10;99.90
13186;DHT22;6658;53.080;7.428;2022-12-07T16:49:12;4.10;99.90
13186;DHT22;6658;53.080;7.428;2022-12-07T16:51:38;4.00;99.90
13186;DHT22;6658;53.080;7.428;2022-12-07T16:54:04;4.00;99.90
13186;DHT22;6658;53.080;7.428;2022-12-07T16:56:30;3.90;99.90
13186;DHT22;6658;53.080;7.428;2022-12-07T16:58:58;3.90;99.90
13186;DHT22;6658;53.080;7.428;2022-12-07T17:01:24;4.00;99.90
13186;DHT22;6658;53.080;7.428;2022-12-07T17:03:50;4.00;99.90
13186;DHT22;6658;53.080;7.428;2022-12-07T17:06:24;4.00;99.90
13186;DHT22;6658;53.080;7.428;2022-12-07T17:08:51;4.00;99.90
13186;DHT22;6658;53.080;7.428;2022-12-07T17:11:19;4.10;99.90
13186;DHT22;6658;53.080;7.428;2022-12-07T17:13:46;4.10;99.90
13186;DHT22;6658;53.080;7.428;2022-12-07T17:16:30;4.10;99.90
13186;DHT22;6658;53.080;7.428;2022-12-07T17:18:56;4.10;99.90
13186;DHT22;6658;53.080;7.428;2022-12-07T17:21:22;4.10;99.90
13186;DHT22;6658;53.080;7.428;2022-12-07T17:23:48;4.10;99.90
13186;DHT22;6658;53.080;7.428;2022-12-07T17:26:17;4.00;99.90
13186;DHT22;6658;53.080;7.428;2022-12-07T17:28:43;4.00;99.90
13186;DHT22;6658;53.080;7.428;2022-12-07T17:31:12;3.90;99.90
13186;DHT22;6658;53.080;7.428;2022-12-07T17:33:39;3.90;99.90
13186;DHT22;6658;53.080;7.428;2022-12-07T17:36:34;3.90;99.90
13186;DHT22;6658;53.080;7.428;2022-12-07T17:38:59;3.90;99.90
13186;DHT22;6658;53.080;7.428;2022-12-07T17:41:27;3.90;99.90
13186;DHT22;6658;53.080;7.428;2022-12-07T17:44:17;3.90;99.90
13186;DHT22;6658;53.080;7.428;2022-12-07T17:46:45;3.90;99.90
13186;DHT22;6658;53.080;7.428;2022-12-07T17:49:11;3.90;99.90
13186;DHT22;6658;53.080;7.428;2022-12-07T17:51:37;3.80;99.90
13186;DHT22;6658;53.080;7.428;2022-12-07T17:54:21;3.80;99.90
13186;DHT22;6658;53.080;7.428;2022-12-07T17:56:48;3.80;99.90
13186;DHT22;6658;53.080;7.428;2022-12-07T17:59:14;3.80;99.90
13186;DHT22;6658;53.080;7.428;2022-12-07T18:01:40;3.80;99.90
13186;DHT22;6658;53.080;7.428;2022-12-07T18:04:06;3.70;99.90
13186;DHT22;6658;53.080;7.428;2022-12-07T18:06:33;3.70;99.90
13186;DHT22;6658;53.080;7.428;2022-12-07T18:08:59;3.80;99.90
13186;DHT22;6658;53.080;7.428;2022-12-07T18:11:25;3.70;99.90
13186;DHT22;6658;53.080;7.428;2022-12-07T18:13:51;3.70;99.90
13186;DHT22;6658;53.080;7.428;2022-12-07T18:16:20;3.70;99.90
13186;DHT22;6658;53.080;7.428;2022-12-07T18:18:47;3.70;99.90
13186;DHT22;6658;53.080;7.428;2022-12-07T18:21:19;3.70;99.90
13186;DHT22;6658;53.080;7.428;2022-12-07T18:23:48;3.70;99.90
13186;DHT22;6658;53.080;7.428;2022-12-07T18:26:15;3.70;99.90
13186;DHT22;6658;53.080;7.428;2022-12-07T18:28:43;3.70;99.90
13186;DHT22;6658;53.080;7.428;2022-12-07T18:31:09;3.70;99.90
13186;DHT22;6658;53.080;7.428;2022-12-07T18:33:35;3.70;99.90